createdAt,value
2019-03-22T00:02:31.863Z,103173.36
2019-03-22T00:05:36.302Z,103179.50
2019-03-22T00:08:40.694Z,103188.61
2019-03-22T00:11:45.059Z,103181.61
2019-03-22T00:14:49.423Z,103181.28
2019-03-22T00:17:53.873Z,103184.31
2019-03-22T00:20:58.249Z,103183.01
2019-03-22T00:24:02.602Z,103173.61
2019-03-22T00:27:15.960Z,103174.94
2019-03-22T00:30:13.187Z,103176.80
2019-03-22T00:33:17.555Z,103173.94
2019-03-22T00:36:22.002Z,103178.83
2019-03-22T00:39:26.349Z,103178.12
2019-03-22T00:42:30.737Z,103179.56
2019-03-22T00:45:35.110Z,103180.42
2019-03-22T00:48:39.494Z,103183.08
2019-03-22T00:51:43.865Z,103184.77
2019-03-22T00:54:48.256Z,103175.41
2019-03-22T00:57:52.603Z,103155.75
2019-03-22T01:00:56.952Z,103160.48
2019-03-22T01:04:01.410Z,103171.66
2019-03-22T01:07:05.840Z,103188.73
2019-03-22T01:10:10.807Z,103198.45
2019-03-22T01:13:15.231Z,103189.39
2019-03-22T01:16:19.615Z,103193.69
2019-03-22T01:19:23.980Z,103191.63
2019-03-22T01:22:28.332Z,103189.13
2019-03-22T01:25:32.712Z,103181.95
2019-03-22T01:28:37.120Z,103176.48
2019-03-22T01:31:41.737Z,103188.99
2019-03-22T01:34:46.102Z,103185.44
2019-03-22T01:37:50.470Z,103200.44
2019-03-22T01:40:54.859Z,103218.49
2019-03-22T01:43:59.220Z,103233.20
2019-03-22T01:47:03.675Z,103223.06
2019-03-22T01:50:09.867Z,103224.56
2019-03-22T01:53:14.198Z,103218.70
2019-03-22T01:56:18.572Z,103220.27
2019-03-22T01:59:22.946Z,103216.39
2019-03-22T02:02:27.463Z,103208.81
2019-03-22T02:05:31.839Z,103198.38
2019-03-22T02:08:36.374Z,103200.90
2019-03-22T02:11:40.733Z,103186.29
2019-03-22T02:14:45.085Z,103187.80
2019-03-22T02:17:49.435Z,103176.52
2019-03-22T02:20:53.797Z,103172.23
2019-03-22T02:23:58.132Z,103175.80
2019-03-22T02:27:02.513Z,103167.81
2019-03-22T02:30:07.805Z,103155.75
2019-03-22T02:33:12.258Z,103160.03
2019-03-22T02:36:16.611Z,103147.14
2019-03-22T02:39:21.099Z,103146.49
2019-03-22T02:42:25.514Z,103152.84
2019-03-22T02:45:29.925Z,103150.47
2019-03-22T02:48:34.308Z,103145.64
2019-03-22T02:51:38.658Z,103145.66
2019-03-22T02:54:43.007Z,103153.29
2019-03-22T02:57:47.422Z,103156.92
2019-03-22T03:00:51.936Z,103169.66
2019-03-22T03:03:56.298Z,103173.36
2019-03-22T03:07:00.758Z,103176.00
2019-03-22T03:10:07.334Z,103182.54
2019-03-22T03:13:11.730Z,103177.19
2019-03-22T03:16:16.172Z,103175.94
2019-03-22T03:19:20.616Z,103165.70
2019-03-22T03:22:24.994Z,103158.95
2019-03-22T03:25:29.401Z,103155.61
2019-03-22T03:28:36.984Z,103153.97
2019-03-22T03:31:39.887Z,103154.81
2019-03-22T03:34:44.259Z,103149.80
2019-03-22T03:37:48.702Z,103161.22
2019-03-22T03:40:53.176Z,103168.19
2019-03-22T03:43:57.737Z,103176.59
2019-03-22T03:47:02.133Z,103186.02
2019-03-22T03:50:07.975Z,103183.62
2019-03-22T03:53:12.337Z,103190.60
2019-03-22T03:56:21.300Z,103196.81
2019-03-22T03:59:27.579Z,103183.16
2019-03-22T04:02:33.209Z,103178.34
2019-03-22T04:05:40.094Z,103178.05
2019-03-22T04:08:45.646Z,103179.50
2019-03-22T04:11:50.830Z,103175.59
2019-03-22T04:14:58.754Z,103174.25
2019-03-22T04:18:04.811Z,103172.48
2019-03-22T04:21:09.579Z,103174.53
2019-03-22T04:24:15.853Z,103175.39
2019-03-22T04:27:24.227Z,103182.97
2019-03-22T04:30:33.305Z,103191.58
2019-03-22T04:33:44.058Z,103192.43
2019-03-22T04:36:49.576Z,103194.55
2019-03-22T04:39:55.607Z,103194.34
2019-03-22T04:43:05.456Z,103193.44
2019-03-22T04:46:15.032Z,103203.58
2019-03-22T04:49:26.930Z,103205.31
2019-03-22T04:52:36.612Z,103203.61
2019-03-22T04:55:44.241Z,103190.70
2019-03-22T04:58:50.431Z,103187.05
2019-03-22T05:01:56.456Z,103197.61
2019-03-22T05:05:01.080Z,103189.17
2019-03-22T05:08:06.310Z,103193.34
2019-03-22T05:11:14.980Z,103185.79
2019-03-22T05:14:56.764Z,103183.48
2019-03-22T05:18:04.216Z,103190.68
2019-03-22T05:21:10.972Z,103200.38
2019-03-22T05:24:18.408Z,103206.05
2019-03-22T05:27:23.426Z,103207.44
2019-03-22T05:31:07.446Z,103214.06
2019-03-22T05:34:11.834Z,103204.49
2019-03-22T05:37:16.275Z,103200.87
2019-03-22T05:40:20.652Z,103209.38
2019-03-22T05:43:24.981Z,103207.52
2019-03-22T05:46:29.332Z,103212.85
2019-03-22T05:49:33.768Z,103208.04
2019-03-22T05:52:38.133Z,103202.78
2019-03-22T05:55:42.575Z,103194.01
2019-03-22T05:58:46.957Z,103198.44
2019-03-22T06:01:51.380Z,103204.62
2019-03-22T06:04:55.758Z,103217.89
2019-03-22T06:08:00.120Z,103225.48
2019-03-22T06:11:04.567Z,103219.48
2019-03-22T06:14:08.923Z,103222.45
2019-03-22T06:17:13.300Z,103218.49
2019-03-22T06:20:17.802Z,103230.05
2019-03-22T06:23:22.167Z,103226.61
2019-03-22T06:26:26.506Z,103232.21
2019-03-22T06:29:30.868Z,103227.55
2019-03-22T06:32:35.302Z,103220.70
2019-03-22T06:35:39.671Z,103223.44
2019-03-22T06:38:44.026Z,103221.28
2019-03-22T06:41:48.484Z,103230.91
2019-03-22T06:44:52.842Z,103219.42
2019-03-22T06:47:57.288Z,103212.44
2019-03-22T06:51:01.671Z,103218.41
2019-03-22T06:54:06.511Z,103216.58
2019-03-22T06:57:10.857Z,103215.14
2019-03-22T07:00:15.235Z,103217.06
2019-03-22T07:03:19.614Z,103220.42
2019-03-22T07:06:23.953Z,103222.87
2019-03-22T07:09:28.328Z,103224.52
2019-03-22T07:12:32.710Z,103224.13
2019-03-22T07:15:37.116Z,103221.54
2019-03-22T07:18:41.480Z,103226.50
2019-03-22T07:21:45.836Z,103226.05
2019-03-22T07:24:50.215Z,103223.55
2019-03-22T07:27:54.545Z,103221.30
2019-03-22T07:30:59.084Z,103225.23
2019-03-22T07:34:03.521Z,103218.11
2019-03-22T07:37:07.885Z,103214.47
2019-03-22T07:40:13.178Z,103199.09
2019-03-22T07:43:17.541Z,103191.23
2019-03-22T07:46:21.898Z,103200.48
2019-03-22T07:49:26.231Z,103193.48
2019-03-22T07:52:30.582Z,103192.48
2019-03-22T07:55:34.942Z,103193.94
2019-03-22T07:58:39.316Z,103191.93
2019-03-22T08:01:43.644Z,103192.58
2019-03-22T08:04:47.988Z,103196.20
2019-03-22T08:07:52.334Z,103192.94
2019-03-22T08:10:56.713Z,103184.97
2019-03-22T08:14:01.077Z,103188.52
2019-03-22T08:17:05.579Z,103194.67
2019-03-22T08:20:10.059Z,103191.67
2019-03-22T08:23:22.211Z,103187.20
2019-03-22T08:26:26.556Z,103183.24
2019-03-22T08:29:30.998Z,103184.78
2019-03-22T08:32:35.439Z,103178.30
2019-03-22T08:35:39.767Z,103171.64
2019-03-22T08:38:44.174Z,103162.70
2019-03-22T08:41:48.566Z,103164.55
2019-03-22T08:44:52.886Z,103156.16
2019-03-22T08:47:57.284Z,103154.25
2019-03-22T08:51:01.694Z,103143.23
2019-03-22T08:54:06.395Z,103136.83
2019-03-22T08:57:10.815Z,103130.57
2019-03-22T09:00:15.516Z,103147.02
2019-03-22T09:03:20.202Z,103144.58
2019-03-22T09:06:24.721Z,103143.45
2019-03-22T09:09:40.986Z,103138.30
2019-03-22T09:12:35.310Z,103135.45
2019-03-22T09:15:41.620Z,103140.55
2019-03-22T09:18:47.354Z,103141.09
2019-03-22T09:21:51.872Z,103136.38
2019-03-22T09:24:56.328Z,103124.16
2019-03-22T09:28:00.810Z,103119.73
2019-03-22T09:31:10.276Z,103127.20
2019-03-22T09:34:11.698Z,103120.34
2019-03-22T09:37:16.109Z,103112.66
2019-03-22T09:40:20.770Z,103112.54
2019-03-22T09:43:25.420Z,103113.05
2019-03-22T09:46:29.839Z,103110.31
2019-03-22T09:49:34.431Z,103103.02
2019-03-22T09:52:39.116Z,103093.94
2019-03-22T09:55:43.474Z,103086.45
2019-03-22T09:58:47.832Z,103094.89
2019-03-22T10:01:54.514Z,103088.28
2019-03-22T10:04:58.885Z,103086.67
2019-03-22T10:08:03.330Z,103085.41
2019-03-22T10:11:07.760Z,103090.47
2019-03-22T10:14:12.139Z,103093.89
2019-03-22T10:17:16.504Z,103094.22
2019-03-22T10:20:20.979Z,103088.88
2019-03-22T10:23:27.194Z,103078.92
2019-03-22T10:26:31.599Z,103085.81
2019-03-22T10:29:35.958Z,103084.27
2019-03-22T10:32:40.370Z,103094.53
2019-03-22T10:35:44.794Z,103094.34
2019-03-22T10:38:50.513Z,103088.64
2019-03-22T10:41:55.127Z,103086.91
2019-03-22T10:44:59.520Z,103078.97
2019-03-22T10:48:03.986Z,103071.48
2019-03-22T10:51:08.413Z,103068.33
2019-03-22T10:54:12.716Z,103064.54
2019-03-22T10:57:17.130Z,103063.54
2019-03-22T11:00:22.145Z,103056.31
2019-03-22T11:03:26.526Z,103047.78
2019-03-22T11:06:30.986Z,103054.41
2019-03-22T11:09:35.340Z,103052.75
2019-03-22T11:12:39.716Z,103057.17
2019-03-22T11:15:48.378Z,103054.66
2019-03-22T11:18:50.162Z,103044.06
2019-03-22T11:21:54.587Z,103039.34
2019-03-22T11:24:58.949Z,103043.31
2019-03-22T11:28:03.276Z,103032.52
2019-03-22T11:31:07.731Z,103036.28
2019-03-22T11:34:12.068Z,103031.25
2019-03-22T11:37:16.568Z,103031.62
2019-03-22T11:40:21.216Z,103025.08
2019-03-22T11:43:25.722Z,103015.63
2019-03-22T11:46:31.106Z,103011.90
2019-03-22T11:49:35.599Z,103008.45
2019-03-22T11:52:40.300Z,103008.00
2019-03-22T11:55:44.789Z,103001.96
2019-03-22T11:58:49.154Z,103001.58
2019-03-22T12:01:53.634Z,102997.63
2019-03-22T12:04:57.982Z,102997.76
2019-03-22T12:08:02.496Z,102993.39
2019-03-22T12:11:06.916Z,102993.88
2019-03-22T12:14:11.319Z,102985.53
2019-03-22T12:17:15.679Z,102984.59
2019-03-22T12:20:20.457Z,102981.58
2019-03-22T12:23:24.822Z,102978.93
2019-03-22T12:26:29.149Z,102980.06
2019-03-22T12:29:34.324Z,102979.02
2019-03-22T12:32:38.850Z,102975.16
2019-03-22T12:35:43.197Z,102974.78
2019-03-22T12:38:47.629Z,102971.70
2019-03-22T12:41:52.008Z,102971.59
2019-03-22T12:44:56.411Z,102975.00
2019-03-22T12:48:01.029Z,102966.13
2019-03-22T12:51:05.578Z,102957.30
2019-03-22T12:54:09.927Z,102958.24
2019-03-22T12:57:14.363Z,102951.69
2019-03-22T13:00:20.833Z,102942.39
2019-03-22T13:03:25.204Z,102938.61
2019-03-22T13:06:30.542Z,102930.16
2019-03-22T13:09:34.880Z,102934.20
2019-03-22T13:12:39.386Z,102936.79
2019-03-22T13:15:43.686Z,102926.62
2019-03-22T13:18:50.358Z,102925.75
2019-03-22T13:21:54.212Z,102925.80
2019-03-22T13:24:58.658Z,102919.59
2019-03-22T13:28:03.151Z,102910.74
2019-03-22T13:31:07.607Z,102912.15
2019-03-22T13:34:13.666Z,102912.62
2019-03-22T13:37:17.996Z,102905.05
2019-03-22T13:40:22.350Z,102897.52
2019-03-22T13:43:26.701Z,102889.19
2019-03-22T13:46:39.915Z,102881.20
2019-03-22T13:49:37.256Z,102873.30
2019-03-22T13:52:41.602Z,102878.64
2019-03-22T13:55:46.028Z,102870.72
2019-03-22T13:58:50.412Z,102872.50
2019-03-22T14:01:54.785Z,102865.78
2019-03-22T14:04:59.160Z,102859.69
2019-03-22T14:08:04.641Z,102860.66
2019-03-22T14:11:09.084Z,102849.52
2019-03-22T14:14:13.484Z,102845.53
2019-03-22T14:17:18.099Z,102831.81
2019-03-22T14:20:22.585Z,102829.62
2019-03-22T14:23:26.940Z,102824.34
2019-03-22T14:26:31.301Z,102822.13
2019-03-22T14:29:35.773Z,102808.01
2019-03-22T14:32:40.150Z,102797.80
2019-03-22T14:35:44.644Z,102791.61
2019-03-22T14:38:49.020Z,102789.37
2019-03-22T14:41:53.410Z,102790.28
2019-03-22T14:44:57.744Z,102783.60
2019-03-22T14:48:02.139Z,102775.18
2019-03-22T14:51:06.513Z,102771.66
2019-03-22T14:54:10.908Z,102766.77
2019-03-22T14:57:15.333Z,102761.88
2019-03-22T15:00:19.869Z,102755.67
2019-03-22T15:03:25.137Z,102750.81
2019-03-22T15:06:29.509Z,102734.40
2019-03-22T15:09:33.909Z,102730.84
2019-03-22T15:12:38.337Z,102725.09
2019-03-22T15:15:51.248Z,102714.45
2019-03-22T15:19:17.682Z,102709.11
2019-03-22T15:22:39.053Z,102716.15
2019-03-22T15:26:04.167Z,102704.56
2019-03-22T15:29:26.083Z,102700.16
2019-03-22T15:32:49.471Z,102694.37
2019-03-22T15:36:17.847Z,102700.55
2019-03-22T15:39:39.879Z,102691.21
2019-03-22T15:42:44.314Z,102685.02
2019-03-22T15:45:48.827Z,102685.98
2019-03-22T15:48:53.262Z,102685.98
2019-03-22T15:51:57.703Z,102684.66
2019-03-22T15:55:02.134Z,102678.45
2019-03-22T15:58:06.736Z,102687.77
2019-03-22T16:01:11.275Z,102686.86
2019-03-22T16:04:15.935Z,102689.53
2019-03-22T16:07:20.491Z,102682.40
2019-03-22T16:10:24.870Z,102683.26
2019-03-22T16:13:29.244Z,102681.46
2019-03-22T16:16:33.743Z,102681.45
2019-03-22T16:19:38.095Z,102676.97
2019-03-22T16:22:42.511Z,102676.02
2019-03-22T16:25:46.949Z,102671.59
2019-03-22T16:28:51.363Z,102671.59
2019-03-22T16:31:55.731Z,102668.92
2019-03-22T16:35:00.117Z,102662.72
2019-03-22T16:38:04.623Z,102656.06
2019-03-22T16:41:08.987Z,102659.17
2019-03-22T16:44:13.381Z,102655.60
2019-03-22T16:47:17.879Z,102649.86
2019-03-22T16:50:24.509Z,102645.89
2019-03-22T16:53:28.944Z,102635.70
2019-03-22T16:56:34.551Z,102638.43
2019-03-22T16:59:38.947Z,102639.80
2019-03-22T17:02:43.435Z,102632.75
2019-03-22T17:05:47.906Z,102630.59
2019-03-22T17:08:52.254Z,102625.73
2019-03-22T17:11:56.769Z,102616.02
2019-03-22T17:15:01.130Z,102608.48
2019-03-22T17:18:06.122Z,102607.62
2019-03-22T17:21:10.471Z,102606.76
2019-03-22T17:24:14.887Z,102601.44
2019-03-22T17:27:19.274Z,102596.56
2019-03-22T17:30:23.691Z,102597.45
2019-03-22T17:33:28.059Z,102599.69
2019-03-22T17:36:32.404Z,102608.08
2019-03-22T17:39:36.759Z,102604.55
2019-03-22T17:42:41.126Z,102607.18
2019-03-22T17:45:45.469Z,102604.09
2019-03-22T17:48:49.808Z,102598.30
2019-03-22T17:51:54.187Z,102596.99
2019-03-22T17:54:58.549Z,102594.75
2019-03-22T17:58:02.970Z,102597.38
2019-03-22T18:01:07.429Z,102596.07
2019-03-22T18:04:11.879Z,102589.41
2019-03-22T18:07:16.211Z,102588.51
2019-03-22T18:10:20.665Z,102586.30
2019-03-22T18:13:25.021Z,102584.95
2019-03-22T18:16:29.435Z,102584.92
2019-03-22T18:19:33.815Z,102587.09
2019-03-22T18:22:38.217Z,102582.20
2019-03-22T18:25:42.585Z,102587.47
2019-03-22T18:28:47.010Z,102585.70
2019-03-22T18:31:51.385Z,102581.69
2019-03-22T18:34:55.728Z,102581.67
2019-03-22T18:38:00.078Z,102577.64
2019-03-22T18:41:04.441Z,102574.11
2019-03-22T18:44:08.751Z,102576.30
2019-03-22T18:47:13.123Z,102575.41
2019-03-22T18:50:17.701Z,102586.00
2019-03-22T18:53:22.073Z,102584.62
2019-03-22T18:56:26.412Z,102581.09
2019-03-22T18:59:30.769Z,102574.88
2019-03-22T19:02:35.215Z,102571.79
2019-03-22T19:05:39.600Z,102569.98
2019-03-22T19:08:43.940Z,102572.15
2019-03-22T19:11:48.286Z,102571.26
2019-03-22T19:14:52.693Z,102575.21
2019-03-22T19:17:57.022Z,102568.16
2019-03-22T19:21:01.393Z,102572.98
2019-03-22T19:24:05.827Z,102568.08
2019-03-22T19:27:10.202Z,102557.89
2019-03-22T19:30:14.800Z,102557.00
2019-03-22T19:33:19.146Z,102552.97
2019-03-22T19:36:23.505Z,102545.89
2019-03-22T19:39:27.865Z,102541.02
2019-03-22T19:42:32.209Z,102543.65
2019-03-22T19:45:36.555Z,102538.34
2019-03-22T19:48:40.908Z,102531.20
2019-03-22T19:51:45.339Z,102528.12
2019-03-22T19:54:49.721Z,102527.20
2019-03-22T19:57:54.092Z,102517.93
2019-03-22T20:00:58.498Z,102514.39
2019-03-22T20:04:02.852Z,102522.31
2019-03-22T20:07:07.295Z,102516.12
2019-03-22T20:10:12.151Z,102512.55
2019-03-22T20:13:16.491Z,102512.98
2019-03-22T20:16:20.839Z,102510.31
2019-03-22T20:19:25.201Z,102508.52
2019-03-22T20:22:29.552Z,102504.10
2019-03-22T20:25:33.910Z,102496.16
2019-03-22T20:28:38.262Z,102496.16
2019-03-22T20:31:42.651Z,102483.34
2019-03-22T20:34:50.143Z,102484.67
2019-03-22T20:37:54.491Z,102480.27
2019-03-22T20:40:58.840Z,102466.98
2019-03-22T20:44:03.239Z,102468.73
2019-03-22T20:47:07.591Z,102465.20
2019-03-22T20:50:12.685Z,102460.34
2019-03-22T20:53:17.216Z,102458.13
2019-03-22T20:56:21.594Z,102457.22
2019-03-22T20:59:25.928Z,102447.97
2019-03-22T21:02:30.281Z,102450.59
2019-03-22T21:05:34.645Z,102450.55
2019-03-22T21:08:39.073Z,102446.98
2019-03-22T21:11:43.414Z,102442.56
2019-03-22T21:14:47.777Z,102441.69
2019-03-22T21:17:52.117Z,102441.69
2019-03-22T21:20:56.466Z,102437.27
2019-03-22T21:24:00.813Z,102438.12
2019-03-22T21:27:15.132Z,102437.26
2019-03-22T21:30:11.738Z,102432.39
2019-03-22T21:33:16.085Z,102434.57
2019-03-22T21:36:20.503Z,102430.16
2019-03-22T21:39:24.868Z,102430.09
2019-03-22T21:42:29.228Z,102426.48
2019-03-22T21:45:33.596Z,102426.02
2019-03-22T21:48:37.945Z,102414.07
2019-03-22T21:51:42.296Z,102422.85
2019-03-22T21:54:46.644Z,102418.87
2019-03-22T21:57:51.126Z,102417.06
2019-03-22T22:00:55.547Z,102408.27
2019-03-22T22:03:59.910Z,102412.69
2019-03-22T22:07:04.256Z,102416.63
2019-03-22T22:10:10.191Z,102403.43
2019-03-22T22:13:14.545Z,102396.37
2019-03-22T22:16:19.013Z,102396.37
2019-03-22T22:19:23.367Z,102399.00
2019-03-22T22:22:27.715Z,102399.34
2019-03-22T22:25:32.146Z,102399.29
2019-03-22T22:28:36.510Z,102394.50
2019-03-22T22:31:40.922Z,102390.09
2019-03-22T22:34:45.263Z,102392.75
2019-03-22T22:37:49.623Z,102385.27
2019-03-22T22:40:53.983Z,102394.69
2019-03-22T22:43:58.349Z,102410.38
2019-03-22T22:47:02.726Z,102417.48
2019-03-22T22:50:08.185Z,102429.52
2019-03-22T22:53:12.650Z,102437.47
2019-03-22T22:56:17.093Z,102436.04
2019-03-22T22:59:21.507Z,102442.46
2019-03-22T23:02:25.865Z,102436.38
2019-03-22T23:05:30.257Z,102440.37
2019-03-22T23:08:34.639Z,102444.81
2019-03-22T23:11:39.060Z,102449.61
2019-03-22T23:14:43.495Z,102457.66
2019-03-22T23:17:47.846Z,102463.73
2019-03-22T23:20:52.276Z,102456.56
2019-03-22T23:23:56.643Z,102456.88
2019-03-22T23:27:01.002Z,102460.40
2019-03-22T23:30:05.999Z,102464.75
2019-03-22T23:33:10.420Z,102462.45
2019-03-22T23:36:20.085Z,102466.26
2019-03-22T23:39:20.940Z,102464.52
2019-03-22T23:42:25.284Z,102477.56
2019-03-22T23:45:29.648Z,102473.32
2019-03-22T23:48:33.972Z,102470.66
2019-03-22T23:51:38.323Z,102469.47
2019-03-22T23:54:42.695Z,102467.03
2019-03-22T23:57:47.229Z,102479.04
